createdAt,value
2022-11-16T00:01:43.453Z,6.19
2022-11-16T00:04:12.160Z,6.19
2022-11-16T00:06:40.228Z,6.21
2022-11-16T00:09:22.987Z,6.21
2022-11-16T00:11:53.053Z,6.24
2022-11-16T00:14:21.482Z,6.26
2022-11-16T00:16:48.422Z,6.30
2022-11-16T00:19:15.373Z,6.34
2022-11-16T00:21:42.488Z,6.41
2022-11-16T00:24:13.103Z,6.45
2022-11-16T00:26:40.105Z,6.49
2022-11-16T00:29:07.293Z,6.50
2022-11-16T00:31:34.345Z,6.53
2022-11-16T00:34:01.368Z,6.57
2022-11-16T00:36:28.682Z,6.58
2022-11-16T00:38:55.787Z,6.54
2022-11-16T00:41:22.816Z,6.53
2022-11-16T00:43:49.797Z,6.49
2022-11-16T00:46:16.917Z,6.47
2022-11-16T00:48:44.161Z,6.40
2022-11-16T00:51:11.201Z,6.34
2022-11-16T00:53:38.277Z,6.29
2022-11-16T00:56:05.710Z,6.28
2022-11-16T00:58:38.772Z,6.29
2022-11-16T01:01:09.827Z,6.31
2022-11-16T01:03:37.272Z,6.31
2022-11-16T01:06:06.651Z,6.32
2022-11-16T01:08:35.521Z,6.30
2022-11-16T01:11:21.605Z,6.32
2022-11-16T01:13:49.058Z,6.30
2022-11-16T01:16:17.953Z,6.26
2022-11-16T01:18:50.310Z,6.23
2022-11-16T01:21:17.543Z,6.19
2022-11-16T01:23:44.607Z,6.14
2022-11-16T01:26:12.548Z,6.15
2022-11-16T01:28:41.560Z,6.12
2022-11-16T01:31:12.405Z,6.10
2022-11-16T01:33:40.610Z,6.05
2022-11-16T01:36:15.424Z,5.99
2022-11-16T01:38:45.773Z,5.97
2022-11-16T01:41:17.712Z,5.96
2022-11-16T01:44:54.392Z,5.99
2022-11-16T01:47:21.748Z,5.98
2022-11-16T01:49:53.507Z,5.97
2022-11-16T01:52:32.959Z,5.97
2022-11-16T01:55:01.639Z,5.98
2022-11-16T01:57:40.119Z,5.98
2022-11-16T02:00:11.784Z,5.97
2022-11-16T02:02:47.789Z,5.98
2022-11-16T02:06:02.145Z,5.87
2022-11-16T02:12:39.946Z,5.50
2022-11-16T02:15:38.781Z,5.35
2022-11-16T02:18:38.852Z,5.27
2022-11-16T02:21:32.762Z,5.24
2022-11-16T02:24:26.076Z,5.17
2022-11-16T02:27:28.700Z,5.17
2022-11-16T02:29:57.006Z,5.08
2022-11-16T02:33:01.911Z,5.04
2022-11-16T02:35:38.614Z,4.79
2022-11-16T02:38:15.491Z,4.71
2022-11-16T02:40:48.295Z,4.69
2022-11-16T02:43:26.763Z,4.66
2022-11-16T02:45:59.344Z,4.69
2022-11-16T02:48:37.192Z,4.56
2022-11-16T02:51:06.836Z,4.55
2022-11-16T02:53:59.674Z,4.59
2022-11-16T02:56:27.683Z,4.44
2022-11-16T02:58:56.353Z,4.39
2022-11-16T03:01:36.953Z,4.34
2022-11-16T03:04:14.687Z,4.21
2022-11-16T03:06:46.090Z,4.14
2022-11-16T03:09:28.073Z,4.15
2022-11-16T03:11:59.726Z,4.12
2022-11-16T03:14:42.308Z,4.10
2022-11-16T03:17:18.125Z,4.12
2022-11-16T03:19:59.916Z,4.15
2022-11-16T03:22:35.477Z,4.11
2022-11-16T03:25:04.969Z,4.13
2022-11-16T03:27:47.396Z,4.15
2022-11-16T03:30:23.543Z,4.15
2022-11-16T03:33:22.732Z,4.19
2022-11-16T03:36:28.522Z,4.13
2022-11-16T03:39:01.440Z,4.11
2022-11-16T03:41:31.603Z,4.11
2022-11-16T03:43:59.885Z,4.13
2022-11-16T03:46:27.053Z,4.17
2022-11-16T03:48:59.138Z,4.23
2022-11-16T03:51:29.942Z,4.30
2022-11-16T03:53:57.598Z,4.36
2022-11-16T03:56:24.746Z,4.37
2022-11-16T03:58:51.944Z,4.36
2022-11-16T04:01:19.237Z,4.40
2022-11-16T04:03:47.630Z,4.45
2022-11-16T04:06:33.901Z,4.50
2022-11-16T04:09:30.122Z,4.51
2022-11-16T04:12:15.648Z,4.51
2022-11-16T04:15:01.795Z,4.55
2022-11-16T04:17:49.448Z,4.56
2022-11-16T04:20:35.397Z,4.55
2022-11-16T04:23:27.161Z,4.59
2022-11-16T04:25:54.719Z,4.61
2022-11-16T04:28:28.568Z,4.66
2022-11-16T04:31:21.038Z,4.68
2022-11-16T04:34:21.312Z,4.68
2022-11-16T04:37:11.095Z,4.68
2022-11-16T04:39:42.385Z,4.69
2022-11-16T04:42:19.275Z,4.70
2022-11-16T04:45:07.576Z,4.70
2022-11-16T04:47:44.987Z,4.77
2022-11-16T04:50:12.891Z,4.80
2022-11-16T04:52:45.997Z,4.85
2022-11-16T04:55:15.154Z,4.88
2022-11-16T04:57:43.332Z,4.92
2022-11-16T05:00:12.739Z,4.95
2022-11-16T05:02:40.308Z,4.93
2022-11-16T05:05:07.818Z,4.88
2022-11-16T05:07:36.641Z,4.87
2022-11-16T05:10:11.389Z,4.86
2022-11-16T05:12:39.179Z,4.85
2022-11-16T05:15:09.345Z,4.84
2022-11-16T05:17:36.466Z,4.81
2022-11-16T05:20:26.729Z,4.84
2022-11-16T05:22:59.819Z,4.91
2022-11-16T05:25:35.394Z,4.95
2022-11-16T05:28:06.226Z,4.99
2022-11-16T05:30:37.225Z,5.07
2022-11-16T05:33:04.755Z,5.09
2022-11-16T05:35:35.411Z,5.07
2022-11-16T05:38:02.681Z,5.08
2022-11-16T05:40:33.518Z,5.06
2022-11-16T05:43:01.360Z,5.05
2022-11-16T05:45:32.051Z,5.04
2022-11-16T05:48:01.438Z,5.06
2022-11-16T05:50:28.759Z,5.02
2022-11-16T05:53:09.430Z,4.99
2022-11-16T05:55:36.896Z,5.04
2022-11-16T05:58:04.496Z,5.10
2022-11-16T06:00:31.767Z,5.17
2022-11-16T06:02:59.803Z,5.22
2022-11-16T06:05:32.475Z,5.30
2022-11-16T06:08:01.773Z,5.43
2022-11-16T06:10:30.915Z,5.50
2022-11-16T06:12:58.277Z,5.61
2022-11-16T06:15:25.474Z,5.71
2022-11-16T06:17:52.694Z,5.76
2022-11-16T06:20:20.872Z,5.80
2022-11-16T06:22:47.884Z,5.84
2022-11-16T06:25:15.114Z,5.88
2022-11-16T06:27:44.255Z,5.98
2022-11-16T06:30:17.314Z,6.05
2022-11-16T06:32:45.234Z,6.09
2022-11-16T06:35:12.605Z,6.17
2022-11-16T06:37:40.377Z,6.24
2022-11-16T06:40:09.367Z,6.32
2022-11-16T06:42:40.219Z,6.37
2022-11-16T06:45:11.131Z,6.35
2022-11-16T06:47:42.310Z,6.28
2022-11-16T06:50:10.323Z,6.29
2022-11-16T06:52:38.547Z,6.34
2022-11-16T06:55:06.561Z,6.42
2022-11-16T06:57:36.583Z,6.43
2022-11-16T07:00:06.306Z,6.46
2022-11-16T07:02:39.758Z,6.48
2022-11-16T07:05:10.253Z,6.50
2022-11-16T07:07:39.193Z,6.49
2022-11-16T07:10:06.849Z,6.49
2022-11-16T07:12:34.144Z,6.49
2022-11-16T07:15:02.288Z,6.61
2022-11-16T07:17:33.635Z,6.78
2022-11-16T07:20:00.802Z,6.91
2022-11-16T07:22:29.155Z,6.96
2022-11-16T07:24:56.157Z,7.06
2022-11-16T07:27:23.480Z,7.14
2022-11-16T07:29:52.076Z,7.17
2022-11-16T07:32:31.610Z,7.24
2022-11-16T07:35:10.269Z,7.41
2022-11-16T07:37:38.586Z,7.58
2022-11-16T07:40:08.769Z,7.69
2022-11-16T07:42:37.506Z,7.75
2022-11-16T07:45:12.360Z,7.81
2022-11-16T07:47:46.097Z,7.83
2022-11-16T07:50:21.894Z,7.91
2022-11-16T07:52:51.334Z,7.97
2022-11-16T07:55:24.650Z,8.05
2022-11-16T07:57:53.747Z,8.06
2022-11-16T08:00:22.025Z,8.12
2022-11-16T08:02:59.246Z,8.17
2022-11-16T08:05:26.768Z,8.27
2022-11-16T08:07:54.727Z,8.41
2022-11-16T08:10:24.956Z,8.51
2022-11-16T08:12:52.159Z,8.63
2022-11-16T08:15:20.563Z,8.74
2022-11-16T08:17:48.290Z,8.77
2022-11-16T08:20:17.294Z,8.81
2022-11-16T08:22:45.411Z,9.04
2022-11-16T08:25:12.826Z,9.31
2022-11-16T08:27:43.068Z,9.36
2022-11-16T08:30:12.209Z,9.48
2022-11-16T08:32:39.661Z,9.69
2022-11-16T08:35:06.985Z,9.91
2022-11-16T08:37:34.883Z,10.15
2022-11-16T08:40:03.890Z,10.36
2022-11-16T08:42:40.748Z,10.53
2022-11-16T08:45:10.683Z,10.71
2022-11-16T08:47:38.172Z,10.68
2022-11-16T08:50:07.631Z,10.69
2022-11-16T08:52:36.167Z,10.63
2022-11-16T08:55:05.580Z,10.70
2022-11-16T08:57:33.280Z,10.64
2022-11-16T09:00:05.348Z,10.65
2022-11-16T09:02:32.487Z,10.58
2022-11-16T09:04:59.729Z,10.48
2022-11-16T09:07:31.078Z,10.42
2022-11-16T09:09:58.256Z,10.40
2022-11-16T09:15:10.536Z,10.55
2022-11-16T09:17:37.689Z,10.60
2022-11-16T09:20:05.514Z,10.70
2022-11-16T09:22:32.647Z,10.84
2022-11-16T09:25:00.102Z,11.01
2022-11-16T09:27:27.745Z,11.16
2022-11-16T09:29:57.308Z,11.36
2022-11-16T09:32:24.288Z,11.49
2022-11-16T09:34:51.340Z,11.64
2022-11-16T09:37:18.694Z,11.72
2022-11-16T09:39:45.839Z,11.81
2022-11-16T09:42:52.872Z,11.87
2022-11-16T09:45:39.430Z,11.94
2022-11-16T09:48:12.745Z,12.03
2022-11-16T09:54:06.773Z,12.38
2022-11-16T09:56:38.077Z,12.49
2022-11-16T09:59:25.376Z,12.59
2022-11-16T10:02:10.452Z,12.75
2022-11-16T10:04:58.889Z,12.90
2022-11-16T10:07:41.955Z,13.03
2022-11-16T10:10:30.688Z,13.24
2022-11-16T10:13:11.262Z,13.43
2022-11-16T10:15:55.306Z,13.54
2022-11-16T10:18:45.917Z,13.60
2022-11-16T10:21:28.769Z,13.59
2022-11-16T10:24:45.965Z,13.73
2022-11-16T10:27:51.710Z,14.00
2022-11-16T10:30:20.897Z,14.19
2022-11-16T10:32:59.366Z,14.38
2022-11-16T10:35:59.240Z,14.56
2022-11-16T10:38:30.631Z,14.65
2022-11-16T10:41:16.450Z,14.81
2022-11-16T10:43:45.607Z,14.88
2022-11-16T10:46:37.451Z,15.01
2022-11-16T10:49:56.427Z,15.14
2022-11-16T10:52:23.928Z,15.02
2022-11-16T10:54:51.705Z,14.84
2022-11-16T10:57:19.644Z,14.69
2022-11-16T10:59:56.264Z,14.64
2022-11-16T11:02:32.813Z,14.63
2022-11-16T11:05:18.178Z,14.51
2022-11-16T11:07:54.057Z,14.36
2022-11-16T11:10:35.775Z,14.35
2022-11-16T11:13:35.187Z,14.43
2022-11-16T11:16:17.816Z,14.56
2022-11-16T11:18:44.884Z,14.71
2022-11-16T11:21:20.424Z,14.86
2022-11-16T11:23:52.902Z,14.95
2022-11-16T11:26:37.201Z,14.93
2022-11-16T11:29:30.761Z,14.85
2022-11-16T11:32:05.767Z,14.75
2022-11-16T11:34:40.223Z,14.73
2022-11-16T11:37:16.000Z,14.70
2022-11-16T11:39:46.424Z,14.57
2022-11-16T11:42:23.035Z,14.43
2022-11-16T11:45:06.133Z,14.31
2022-11-16T11:48:00.575Z,14.45
2022-11-16T11:50:53.828Z,14.68
2022-11-16T11:54:00.617Z,14.82
2022-11-16T11:56:30.929Z,14.83
2022-11-16T11:58:58.846Z,14.82
2022-11-16T12:01:55.506Z,14.77
2022-11-16T12:05:08.410Z,14.56
2022-11-16T12:08:07.619Z,14.30
2022-11-16T12:10:58.117Z,14.14
2022-11-16T12:24:04.238Z,13.84
2022-11-16T12:27:04.128Z,13.80
2022-11-16T12:30:10.662Z,13.80
2022-11-16T12:33:09.215Z,13.85
2022-11-16T12:36:01.350Z,13.94
2022-11-16T12:38:51.238Z,14.08
2022-11-16T12:42:09.086Z,14.20
2022-11-16T12:45:09.408Z,14.21
2022-11-16T13:20:45.382Z,14.63
2022-11-16T13:23:55.935Z,14.60
2022-11-16T13:26:36.360Z,14.61
2022-11-16T13:29:44.713Z,14.56
2022-11-16T13:32:20.791Z,14.51
2022-11-16T13:34:48.984Z,14.51
2022-11-16T13:37:44.379Z,14.49
2022-11-16T13:40:22.113Z,14.42
2022-11-16T13:43:17.759Z,14.34
2022-11-16T13:45:59.343Z,14.34
2022-11-16T13:48:36.482Z,14.27
2022-11-16T13:51:17.284Z,14.22
2022-11-16T13:56:51.747Z,14.34
2022-11-16T13:59:23.772Z,14.22
2022-11-16T14:02:49.304Z,14.06
2022-11-16T14:05:40.245Z,13.97
2022-11-16T14:08:49.803Z,14.00
2022-11-16T14:11:42.529Z,13.98
2022-11-16T14:14:48.358Z,13.93
2022-11-16T14:17:53.831Z,13.95
2022-11-16T14:20:55.509Z,13.74
2022-11-16T14:23:46.786Z,13.62
2022-11-16T14:26:27.218Z,13.63
2022-11-16T14:29:47.215Z,13.63
2022-11-16T14:32:23.905Z,13.58
2022-11-16T14:34:53.611Z,13.57
2022-11-16T14:37:42.520Z,13.62
2022-11-16T14:40:20.169Z,13.56
2022-11-16T14:45:40.527Z,13.48
2022-11-16T14:48:17.373Z,13.39
2022-11-16T14:51:10.649Z,13.22
2022-11-16T14:53:45.822Z,13.08
2022-11-16T14:56:15.710Z,13.04
2022-11-16T14:59:00.394Z,13.05
2022-11-16T15:01:45.705Z,13.01
2022-11-16T15:04:18.162Z,12.99
2022-11-16T15:07:02.610Z,12.97
2022-11-16T15:09:34.082Z,12.95
2022-11-16T15:12:22.753Z,12.94
2022-11-16T15:14:54.985Z,12.90
2022-11-16T15:17:27.201Z,12.86
2022-11-16T15:19:59.579Z,12.84
2022-11-16T15:22:30.781Z,12.80
2022-11-16T15:24:58.959Z,12.72
2022-11-16T15:27:41.550Z,12.69
2022-11-16T15:30:18.608Z,12.67
2022-11-16T15:32:48.834Z,12.63
2022-11-16T15:35:25.253Z,12.65
2022-11-16T15:38:18.953Z,12.61
2022-11-16T15:41:03.843Z,12.59
2022-11-16T15:43:45.419Z,12.62
2022-11-16T15:46:25.157Z,12.62
2022-11-16T15:48:53.415Z,12.63
2022-11-16T15:51:24.889Z,12.66
2022-11-16T15:53:54.365Z,12.68
2022-11-16T15:56:33.469Z,12.78
2022-11-16T15:59:11.770Z,12.67
2022-11-16T16:01:46.011Z,12.57
2022-11-16T16:04:17.754Z,12.51
2022-11-16T16:06:59.658Z,12.40
2022-11-16T16:09:35.782Z,12.37
2022-11-16T16:12:47.107Z,12.44
2022-11-16T16:15:40.624Z,12.45
2022-11-16T16:18:39.574Z,12.38
2022-11-16T16:21:06.851Z,12.33
2022-11-16T16:23:34.056Z,12.31
2022-11-16T16:26:15.871Z,12.31
2022-11-16T16:28:45.434Z,12.37
2022-11-16T16:31:13.326Z,12.58
2022-11-16T16:33:43.422Z,12.33
2022-11-16T16:36:14.109Z,12.18
2022-11-16T16:38:41.534Z,12.16
2022-11-16T16:41:22.677Z,12.17
2022-11-16T16:43:51.110Z,12.21
2022-11-16T16:46:18.372Z,12.26
2022-11-16T16:48:45.402Z,12.29
2022-11-16T16:51:13.200Z,12.30
2022-11-16T16:53:40.277Z,12.33
2022-11-16T16:56:14.966Z,12.30
2022-11-16T16:58:42.197Z,12.25
2022-11-16T17:01:11.098Z,12.37
2022-11-16T17:03:38.203Z,12.41
2022-11-16T17:06:05.599Z,12.21
2022-11-16T17:08:36.590Z,11.99
2022-11-16T17:11:04.815Z,12.07
2022-11-16T17:13:32.047Z,11.93
2022-11-16T17:16:01.768Z,12.01
2022-11-16T17:18:28.784Z,11.72
2022-11-16T17:20:55.859Z,11.70
2022-11-16T17:23:23.014Z,11.89
2022-11-16T17:25:50.060Z,11.82
2022-11-16T17:28:17.209Z,11.49
2022-11-16T17:30:44.350Z,11.41
2022-11-16T17:33:11.355Z,11.43
2022-11-16T17:35:38.421Z,11.38
2022-11-16T17:38:05.427Z,11.30
2022-11-16T17:40:32.490Z,11.25
2022-11-16T17:42:59.585Z,11.29
2022-11-16T17:45:27.714Z,11.36
2022-11-16T17:47:54.989Z,11.39
2022-11-16T17:50:22.051Z,11.43
2022-11-16T17:52:49.054Z,11.48
2022-11-16T17:55:16.154Z,11.51
2022-11-16T17:57:43.255Z,11.53
2022-11-16T18:00:11.419Z,11.56
2022-11-16T18:02:38.470Z,11.53
2022-11-16T18:05:05.999Z,11.43
2022-11-16T18:07:33.781Z,11.35
2022-11-16T18:10:00.859Z,11.31
2022-11-16T18:12:27.938Z,11.31
2022-11-16T18:15:26.581Z,11.25
2022-11-16T18:17:42.142Z,11.23
2022-11-16T18:20:10.147Z,11.19
2022-11-16T18:22:37.204Z,11.18
2022-11-16T18:25:04.731Z,11.21
2022-11-16T18:27:31.666Z,11.22
2022-11-16T18:29:58.677Z,11.21
2022-11-16T18:32:25.651Z,11.22
2022-11-16T18:34:53.394Z,11.23
2022-11-16T18:37:20.575Z,11.30
2022-11-16T18:39:47.658Z,11.31
2022-11-16T18:42:14.712Z,11.35
2022-11-16T18:44:41.836Z,11.31
2022-11-16T18:47:08.937Z,11.30
2022-11-16T18:49:36.006Z,11.20
2022-11-16T18:52:03.356Z,11.36
2022-11-16T18:54:30.488Z,11.16
2022-11-16T18:56:57.447Z,11.12
2022-11-16T18:59:25.995Z,11.04
2022-11-16T19:01:53.127Z,11.07
2022-11-16T19:04:20.118Z,11.11
2022-11-16T19:06:47.327Z,11.11
2022-11-16T19:09:14.399Z,11.08
2022-11-16T19:11:41.724Z,11.10
2022-11-16T19:14:08.770Z,11.13
2022-11-16T19:16:36.141Z,11.17
2022-11-16T19:19:03.552Z,11.15
2022-11-16T19:21:31.280Z,11.13
2022-11-16T19:23:58.667Z,11.16
2022-11-16T19:26:27.603Z,11.12
2022-11-16T19:28:54.949Z,11.12
2022-11-16T19:31:24.677Z,11.14
2022-11-16T19:34:05.843Z,11.09
2022-11-16T19:36:34.637Z,11.04
2022-11-16T19:39:01.908Z,11.02
2022-11-16T19:41:29.296Z,10.97
2022-11-16T19:44:00.055Z,10.93
2022-11-16T19:46:29.012Z,10.97
2022-11-16T19:48:56.957Z,11.04
2022-11-16T19:51:33.940Z,11.03
2022-11-16T19:54:02.177Z,11.02
2022-11-16T19:56:29.927Z,10.96
2022-11-16T19:58:57.193Z,10.93
2022-11-16T20:01:28.187Z,10.92
2022-11-16T20:03:57.454Z,10.91
2022-11-16T20:06:28.598Z,10.89
2022-11-16T20:08:59.500Z,10.90
2022-11-16T20:11:36.608Z,10.90
2022-11-16T20:14:06.074Z,10.92
2022-11-16T20:16:39.058Z,10.94
2022-11-16T20:19:08.405Z,11.01
2022-11-16T20:21:43.180Z,10.97
2022-11-16T20:24:13.153Z,10.87
2022-11-16T20:26:58.492Z,10.83
2022-11-16T20:29:25.593Z,10.81
2022-11-16T20:31:52.639Z,10.80
2022-11-16T20:34:21.047Z,10.84
2022-11-16T20:36:50.885Z,10.89
2022-11-16T20:39:20.073Z,10.93
2022-11-16T20:41:48.427Z,10.91
2022-11-16T20:44:22.548Z,10.90
2022-11-16T20:46:52.321Z,10.89
2022-11-16T20:49:19.636Z,10.87
2022-11-16T20:51:47.907Z,10.87
2022-11-16T20:54:15.515Z,10.87
2022-11-16T20:56:42.654Z,10.84
2022-11-16T20:59:09.671Z,10.75
2022-11-16T21:01:37.756Z,10.76
2022-11-16T21:04:06.341Z,10.72
2022-11-16T21:06:34.000Z,10.74
2022-11-16T21:09:01.467Z,10.78
2022-11-16T21:11:30.949Z,10.78
2022-11-16T21:14:16.223Z,10.72
2022-11-16T21:16:43.788Z,10.71
2022-11-16T21:19:11.821Z,10.73
2022-11-16T21:21:40.616Z,10.70
2022-11-16T21:24:10.957Z,10.72
2022-11-16T21:26:38.655Z,10.74
2022-11-16T21:29:06.220Z,10.78
2022-11-16T21:31:36.350Z,10.80
2022-11-16T21:34:03.899Z,10.84
2022-11-16T21:36:32.299Z,10.87
2022-11-16T21:38:59.754Z,10.87
2022-11-16T21:41:27.499Z,10.84
2022-11-16T21:43:54.624Z,10.84
2022-11-16T21:46:25.016Z,10.83
2022-11-16T21:48:54.040Z,10.75
2022-11-16T21:51:27.607Z,10.72
2022-11-16T21:53:55.684Z,10.77
2022-11-16T21:56:24.832Z,10.81
2022-11-16T21:58:53.449Z,10.84
2022-11-16T22:01:21.482Z,10.88
2022-11-16T22:04:08.856Z,10.92
2022-11-16T22:06:54.584Z,10.90
2022-11-16T22:09:22.003Z,10.85
2022-11-16T22:11:49.151Z,10.83
2022-11-16T22:14:16.393Z,10.86
2022-11-16T22:16:43.421Z,10.87
2022-11-16T22:19:10.678Z,10.92
2022-11-16T22:21:37.714Z,10.95
2022-11-16T22:24:05.010Z,11.00
2022-11-16T22:26:32.114Z,11.01
2022-11-16T22:28:59.453Z,11.00
2022-11-16T22:31:26.633Z,11.00
2022-11-16T22:33:56.461Z,11.00
2022-11-16T22:36:23.456Z,10.97
2022-11-16T22:38:50.562Z,10.93
2022-11-16T22:41:17.582Z,10.99
2022-11-16T22:43:44.517Z,10.96
2022-11-16T22:46:11.635Z,10.91
2022-11-16T22:48:40.137Z,10.88
2022-11-16T22:51:21.639Z,10.92
2022-11-16T22:53:53.270Z,11.01
2022-11-16T22:56:20.398Z,10.99
2022-11-16T22:58:47.499Z,11.23
2022-11-16T23:01:18.019Z,10.94
2022-11-16T23:03:45.351Z,11.09
2022-11-16T23:06:17.864Z,10.80
2022-11-16T23:08:44.896Z,10.66
2022-11-16T23:11:38.182Z,10.64
2022-11-16T23:14:25.076Z,10.71
2022-11-16T23:16:52.735Z,10.77
2022-11-16T23:19:39.302Z,10.76
2022-11-16T23:22:26.403Z,10.70
2022-11-16T23:25:12.250Z,10.74
2022-11-16T23:28:03.425Z,10.69
2022-11-16T23:30:30.516Z,10.73
2022-11-16T23:32:57.771Z,10.78
2022-11-16T23:35:24.828Z,10.74
2022-11-16T23:38:00.299Z,10.86
2022-11-16T23:40:45.445Z,10.68
2022-11-16T23:43:31.146Z,10.58
2022-11-16T23:45:58.411Z,10.57
2022-11-16T23:48:25.544Z,10.60
2022-11-16T23:50:52.587Z,10.70
2022-11-16T23:53:19.699Z,10.83
2022-11-16T23:55:47.961Z,10.82
2022-11-16T23:58:15.667Z,10.77
